Cocolalla, Idaho
Current Conditions -  °F | °C
As of 4:55 PM on Saturday 22 Nov 2014 (Local Time) from KSZT Reporting Station
Broken Clouds Broken Clouds  
Wind Chill: 32°   Ceiling: 8000
Heat Index: 37°   Visibility: 10mi
Dew Point: 32°   Wind: 7mph
Humidity: 81%   Direction: 250°WSW
Pressure: 29.75"   Gusts: NA
Location:  48.11°N, 116.62°W
Report Text: KSZT 230055Z AUTO 25006KT 10SM SCT060 BKN080 03/00 A2975 RMK AO2
Loading
Personal Weather Stations






























Interactive Weather Map New forecast layout! Learn more

10-Day Weather Forecast

Advertisements
Track Severe Weather on mobile